Detall de PIREP

Printer-friendly versionPDF version

[2017/08/11 04:38:00]
Flight IATA:CT0001
Pilot Number:041
Company ICAO:CAT
Aircraft Type:B738/F
PAX:121
Departing Airport: LEMH
Destination Airport: LEVC
Alternate Airport:LEBL
Online: VATSIM
Route:EPAMA A33 ARGOR
Flight Level:FL230
No Slew and time accel
No pause
Crash detect
Detect pilot in Cockpit between each 30 and 45 minutes
04:38 Zero fuel Weight: 135502 Lbs, Fuel Weight: 20965 Lbs
04:38 VATSIM:LEMH 110400Z VRB02KT 9999 SCT030 20/15 Q1020
04:38 VATSIM:LEVC 110400Z 28003KT CAVOK 18/13 Q1021 NOSIG
04:39 VOICE CATALONIAN
04:39 Parking Brakes off
04:45 Take-off
04:45 Take off Weight: 155647 Lbs
04:45 Wind: 211º @ 007 Knots Heading: 008º
04:45 POS N39º 52´ 23´´ E004º 13´ 14´´
04:45 Gear Up: 169 Knots
04:45 Flaps:3 at 169 Knots
04:46 Flaps:2 at 174 Knots
04:46 Flaps:1 at 193 Knots
04:46 Flaps:0 at 205 Knots
04:54 TOC
04:54 Fuel Weight: 17728 Lb
05:00 Wind:270º@037 Knots Heading: 280º Ground Speed: 387 Knots Altitude 22962 ft
05:13 TOD
05:13 Fuel Weight: 15626 Lb
05:15 Wind:307º@020 Knots Heading: 267º Ground Speed: 359 Knots Altitude 19878 ft
05:27 Flaps:1 at 250 Knots
05:27 Flaps:2 at 245 Knots
05:27 Flaps:3 at 239 Knots
05:27 Flaps:4 at 230 Knots
05:29 Flaps:5 at 206 Knots
05:29 Flaps:6 at 195 Knots
05:29 Gear Down: 178 Knots
05:30 Wind:035º@008 Knots Heading: 298º Ground Speed: 181 Knots Altitude 1968 ft
05:30 Flaps:7 at 172 Knots
05:30 Flaps:8 at 162 Knots
05:32 TouchDown:Rate -130 ft/min Speed: 134 Knots
05:32 VATSIM:LEVC 110500Z 28004KT 9999 FEW040 18/12 Q1021 NOSIG
05:32 Land
05:32 Wind:073º@009 Knots
05:32 Heading: 296º
05:32 Flight Duration: 00:47
05:32 Landing Weight: 150171 Lbs
05:32 POS N39º 29´ 27´´ W000º 29´ 11´´
05:37 Parking brakes on
05:37 Block to Block Duration: 00:58
05:37 Final Fuel: 14186 Lbls
05:37 Spent Fuel: 6779 Lbls
05:37 Flight Length: 257 NM
05:37 TOD Land Length: 86 NM

Exportar CSV

Powered by Drupal - Modified by Danger4k